createdAt,value
2023-05-19T00:01:21.760Z,98495.60
2023-05-19T00:04:25.100Z,98492.97
2023-05-19T00:07:32.808Z,98495.84
2023-05-19T00:10:36.689Z,98494.02
2023-05-19T00:13:39.850Z,98484.45
2023-05-19T00:16:43.406Z,98481.64
2023-05-19T00:19:46.809Z,98472.45
2023-05-19T00:22:51.213Z,98474.89
2023-05-19T00:25:54.270Z,98470.10
2023-05-19T00:28:57.458Z,98468.55
2023-05-19T00:32:00.553Z,98465.50
2023-05-19T00:35:03.662Z,98457.52
2023-05-19T00:38:06.949Z,98446.48
2023-05-19T00:41:10.148Z,98451.90
2023-05-19T00:44:13.257Z,98462.23
2023-05-19T00:47:16.934Z,98460.88
2023-05-19T00:50:20.030Z,98451.77
2023-05-19T00:53:24.724Z,98445.04
2023-05-19T00:56:27.879Z,98440.92
2023-05-19T00:59:30.999Z,98447.23
2023-05-19T01:02:34.990Z,98446.55
2023-05-19T01:05:40.303Z,98447.89
2023-05-19T01:08:43.602Z,98451.89
2023-05-19T01:11:46.595Z,98450.40
2023-05-19T01:14:50.364Z,98448.89
2023-05-19T01:18:11.432Z,98440.17
2023-05-19T01:21:36.981Z,98431.05
2023-05-19T01:24:58.793Z,98430.88
2023-05-19T01:28:34.519Z,98437.05
2023-05-19T01:31:40.176Z,98438.24
2023-05-19T01:34:47.264Z,98441.20
2023-05-19T01:37:55.203Z,98434.29
2023-05-19T01:41:04.454Z,98437.52
2023-05-19T01:44:10.076Z,98436.80
2023-05-19T01:47:19.288Z,98437.80
2023-05-19T01:50:23.873Z,98434.58
2023-05-19T01:53:27.159Z,98439.80
2023-05-19T01:56:50.349Z,98435.31
2023-05-19T02:00:06.618Z,98428.36
2023-05-19T02:03:31.009Z,98429.16
2023-05-19T02:06:50.131Z,98434.79
2023-05-19T02:10:06.515Z,98427.31
2023-05-19T02:13:21.669Z,98411.21
2023-05-19T02:16:30.411Z,98403.95
2023-05-19T02:19:42.604Z,98415.48
2023-05-19T02:22:46.071Z,98410.13
2023-05-19T02:25:57.050Z,98405.85
2023-05-19T02:29:02.692Z,98398.48
2023-05-19T02:32:08.819Z,98397.67
2023-05-19T02:35:13.539Z,98406.58
2023-05-19T02:38:26.575Z,98406.70
2023-05-19T02:41:30.852Z,98395.80
2023-05-19T02:44:34.244Z,98400.49
2023-05-19T02:47:39.102Z,98399.84
2023-05-19T02:50:46.929Z,98396.59
2023-05-19T02:53:50.559Z,98393.91
2023-05-19T02:56:54.182Z,98396.00
2023-05-19T02:59:58.368Z,98394.95
2023-05-19T03:03:03.488Z,98399.11
2023-05-19T03:06:08.870Z,98400.54
2023-05-19T03:09:13.027Z,98400.40
2023-05-19T03:12:18.616Z,98401.19
2023-05-19T03:15:23.691Z,98402.73
2023-05-19T03:18:29.378Z,98392.63
2023-05-19T03:21:34.682Z,98390.64
2023-05-19T03:24:37.964Z,98397.14
2023-05-19T03:27:43.648Z,98397.23
2023-05-19T03:30:52.293Z,98399.23
2023-05-19T03:33:57.926Z,98400.59
2023-05-19T03:37:01.689Z,98398.59
2023-05-19T03:40:07.069Z,98399.44
2023-05-19T03:43:10.929Z,98405.01
2023-05-19T03:46:14.961Z,98407.95
2023-05-19T03:49:19.519Z,98405.39
2023-05-19T03:52:26.175Z,98400.85
2023-05-19T03:55:31.415Z,98400.00
2023-05-19T03:58:37.137Z,98406.01
2023-05-19T04:01:42.083Z,98405.98
2023-05-19T04:04:46.392Z,98409.37
2023-05-19T04:07:49.999Z,98412.74
2023-05-19T04:10:54.265Z,98415.11
2023-05-19T04:13:57.426Z,98412.73
2023-05-19T04:17:00.910Z,98410.43
2023-05-19T04:20:06.476Z,98408.08
2023-05-19T04:23:12.607Z,98416.33
2023-05-19T04:26:18.093Z,98422.81
2023-05-19T04:29:24.332Z,98428.29
2023-05-19T04:32:30.473Z,98430.19
2023-05-19T04:36:06.203Z,98429.65
2023-05-19T04:39:30.509Z,98432.23
2023-05-19T04:42:47.652Z,98430.75
2023-05-19T04:45:51.932Z,98431.99
2023-05-19T04:48:57.815Z,98434.33
2023-05-19T04:52:01.502Z,98435.60
2023-05-19T04:55:05.625Z,98439.02
2023-05-19T04:58:09.496Z,98438.05
2023-05-19T05:01:33.281Z,98437.05
2023-05-19T05:04:36.923Z,98436.02
2023-05-19T05:07:41.661Z,98436.20
2023-05-19T05:10:54.165Z,98442.06
2023-05-19T05:13:59.902Z,98438.54
2023-05-19T05:17:03.491Z,98436.71
2023-05-19T05:20:08.858Z,98427.21
2023-05-19T05:23:14.840Z,98429.11
2023-05-19T05:26:25.206Z,98431.08
2023-05-19T05:29:28.270Z,98433.85
2023-05-19T05:32:32.353Z,98431.46
2023-05-19T05:35:35.393Z,98435.55
2023-05-19T05:38:39.418Z,98435.13
2023-05-19T05:41:43.058Z,98439.04
2023-05-19T05:44:46.670Z,98435.73
2023-05-19T05:47:51.035Z,98438.63
2023-05-19T05:50:56.917Z,98440.34
2023-05-19T05:54:01.169Z,98435.23
2023-05-19T05:57:04.684Z,98440.67
2023-05-19T06:00:16.134Z,98446.21
2023-05-19T06:03:24.600Z,98443.05
2023-05-19T06:06:28.545Z,98442.11
2023-05-19T06:09:33.024Z,98442.45
2023-05-19T06:12:41.166Z,98446.61
2023-05-19T06:15:44.913Z,98444.45
2023-05-19T06:18:48.260Z,98451.94
2023-05-19T06:21:52.447Z,98452.24
2023-05-19T06:24:58.070Z,98455.20
2023-05-19T06:28:01.311Z,98453.73
2023-05-19T06:31:04.626Z,98454.75
2023-05-19T06:34:10.843Z,98458.71
2023-05-19T06:37:19.748Z,98463.71
2023-05-19T06:40:23.332Z,98465.63
2023-05-19T06:43:27.187Z,98466.13
2023-05-19T06:46:30.424Z,98470.81
2023-05-19T06:49:33.742Z,98472.15
2023-05-19T06:52:39.305Z,98468.48
2023-05-19T06:55:58.217Z,98466.02
2023-05-19T06:59:03.230Z,98464.73
2023-05-19T07:02:07.280Z,98462.03
2023-05-19T07:05:15.601Z,98466.17
2023-05-19T07:08:37.479Z,98464.77
2023-05-19T07:11:41.725Z,98470.68
2023-05-19T07:14:45.802Z,98470.05
2023-05-19T07:17:51.722Z,98469.73
2023-05-19T07:20:55.920Z,98469.94
2023-05-19T07:23:59.445Z,98474.58
2023-05-19T07:27:04.417Z,98480.63
2023-05-19T07:30:09.043Z,98481.70
2023-05-19T07:33:12.494Z,98479.39
2023-05-19T07:36:16.010Z,98480.52
2023-05-19T07:39:19.555Z,98480.56
2023-05-19T07:42:32.103Z,98481.79
2023-05-19T07:45:36.436Z,98484.95
2023-05-19T07:48:39.534Z,98486.27
2023-05-19T07:51:43.131Z,98486.91
2023-05-19T07:54:48.606Z,98486.34
2023-05-19T07:57:53.160Z,98487.08
2023-05-19T08:01:00.835Z,98495.98
2023-05-19T08:04:04.008Z,98491.04
2023-05-19T08:07:07.458Z,98494.30
2023-05-19T08:10:11.133Z,98494.33
2023-05-19T08:13:15.016Z,98497.75
2023-05-19T08:16:18.380Z,98499.87
2023-05-19T08:19:22.269Z,98500.70
2023-05-19T08:22:26.143Z,98502.75
2023-05-19T08:25:29.608Z,98500.52
2023-05-19T08:28:32.803Z,98502.79
2023-05-19T08:31:36.639Z,98502.71
2023-05-19T08:34:39.886Z,98501.20
2023-05-19T08:37:43.850Z,98501.59
2023-05-19T08:40:48.771Z,98496.27
2023-05-19T08:43:52.006Z,98493.30
2023-05-19T08:46:58.299Z,98498.52
2023-05-19T08:50:08.669Z,98500.33
2023-05-19T08:56:36.376Z,98497.46
2023-05-19T08:59:41.598Z,98496.50
2023-05-19T09:02:59.690Z,98497.18
2023-05-19T09:06:14.082Z,98498.52
2023-05-19T09:09:17.582Z,98496.34
2023-05-19T09:12:21.274Z,98499.13
2023-05-19T09:15:28.749Z,98494.26
2023-05-19T09:18:32.350Z,98499.27
2023-05-19T09:21:36.448Z,98501.13
2023-05-19T09:24:40.915Z,98499.55
2023-05-19T09:27:44.330Z,98498.08
2023-05-19T09:30:47.402Z,98496.33
2023-05-19T09:33:54.358Z,98499.85
2023-05-19T09:37:00.069Z,98501.30
2023-05-19T09:40:05.984Z,98500.48
2023-05-19T09:43:11.024Z,98498.36
2023-05-19T09:46:16.057Z,98498.23
2023-05-19T09:49:24.195Z,98495.13
2023-05-19T09:52:28.495Z,98493.80
2023-05-19T09:55:34.025Z,98494.67
2023-05-19T09:58:38.257Z,98497.62
2023-05-19T10:01:46.571Z,98495.64
2023-05-19T10:04:51.331Z,98502.73
2023-05-19T10:07:55.972Z,98499.04
2023-05-19T10:11:00.276Z,98491.20
2023-05-19T10:14:04.771Z,98492.04
2023-05-19T10:17:10.087Z,98491.73
2023-05-19T10:20:16.159Z,98489.89
2023-05-19T10:23:19.850Z,98487.59
2023-05-19T10:26:25.327Z,98482.65
2023-05-19T10:29:34.967Z,98482.27
2023-05-19T10:32:40.618Z,98483.59
2023-05-19T10:36:14.470Z,98484.88
2023-05-19T10:39:27.960Z,98492.56
2023-05-19T10:42:42.162Z,98489.34
2023-05-19T10:45:49.735Z,98485.64
2023-05-19T10:48:52.869Z,98489.21
2023-05-19T10:51:58.324Z,98489.80
2023-05-19T10:55:01.364Z,98487.02
2023-05-19T10:58:04.732Z,98487.44
2023-05-19T11:01:18.715Z,98483.02
2023-05-19T11:04:41.309Z,98485.20
2023-05-19T11:08:04.749Z,98484.27
2023-05-19T11:11:17.693Z,98483.55
2023-05-19T11:14:24.221Z,98489.69
2023-05-19T11:17:27.567Z,98487.96
2023-05-19T11:20:35.263Z,98484.77
2023-05-19T11:23:40.780Z,98482.59
2023-05-19T11:26:43.950Z,98478.97
2023-05-19T11:29:48.620Z,98483.29
2023-05-19T11:32:52.585Z,98481.85
2023-05-19T11:36:00.430Z,98480.21
2023-05-19T11:39:06.214Z,98479.94
2023-05-19T11:42:11.013Z,98481.73
2023-05-19T11:45:14.873Z,98481.89
2023-05-19T11:48:21.817Z,98482.36
2023-05-19T11:51:25.168Z,98481.10
2023-05-19T11:54:33.827Z,98480.02
2023-05-19T11:57:38.437Z,98478.95
2023-05-19T12:00:43.215Z,98476.11
2023-05-19T12:03:46.747Z,98473.20
2023-05-19T12:06:50.146Z,98481.02
2023-05-19T12:09:55.571Z,98474.05
2023-05-19T12:12:59.969Z,98473.79
2023-05-19T12:16:05.458Z,98470.90
2023-05-19T12:19:08.824Z,98466.30
2023-05-19T12:22:12.955Z,98456.89
2023-05-19T12:25:17.108Z,98454.60
2023-05-19T12:28:20.286Z,98454.98
2023-05-19T12:31:24.142Z,98455.67
2023-05-19T12:34:27.183Z,98455.22
2023-05-19T12:37:30.382Z,98451.42
2023-05-19T12:40:35.311Z,98445.39
2023-05-19T12:43:39.807Z,98438.59
2023-05-19T12:46:44.750Z,98437.88
2023-05-19T12:50:00.360Z,98439.14
2023-05-19T12:53:03.619Z,98443.08
2023-05-19T12:56:14.726Z,98437.39
2023-05-19T12:59:37.204Z,98436.77
2023-05-19T13:03:00.741Z,98432.48
2023-05-19T13:06:04.070Z,98435.70
2023-05-19T13:09:07.413Z,98428.53
2023-05-19T13:12:10.323Z,98432.65
2023-05-19T13:15:13.259Z,98428.00
2023-05-19T13:18:16.343Z,98425.13
2023-05-19T13:21:19.571Z,98427.01
2023-05-19T13:24:22.668Z,98426.54
2023-05-19T13:27:25.596Z,98431.65
2023-05-19T13:30:28.661Z,98429.13
2023-05-19T13:33:32.292Z,98424.85
2023-05-19T13:36:36.857Z,98425.19
2023-05-19T13:39:40.637Z,98425.67
2023-05-19T13:42:43.892Z,98425.61
2023-05-19T13:45:46.974Z,98422.65
2023-05-19T13:48:49.854Z,98418.02
2023-05-19T13:51:57.318Z,98419.73
2023-05-19T13:55:00.227Z,98415.89
2023-05-19T13:58:03.782Z,98417.52
2023-05-19T14:01:06.682Z,98417.54
2023-05-19T14:04:10.711Z,98421.17
2023-05-19T14:07:13.903Z,98422.96
2023-05-19T14:10:16.818Z,98416.85
2023-05-19T14:13:32.647Z,98418.03
2023-05-19T14:16:38.359Z,98420.59
2023-05-19T14:19:41.378Z,98415.72
2023-05-19T14:22:44.316Z,98418.15
2023-05-19T14:25:47.232Z,98424.14
2023-05-19T14:28:50.131Z,98419.81
2023-05-19T14:31:53.249Z,98422.88
2023-05-19T14:34:56.376Z,98433.92
2023-05-19T14:37:59.287Z,98431.11
2023-05-19T14:41:02.936Z,98430.92
2023-05-19T14:44:06.122Z,98435.48
2023-05-19T14:47:11.407Z,98437.89
2023-05-19T14:50:14.571Z,98439.51
2023-05-19T14:53:17.587Z,98438.66
2023-05-19T14:56:22.154Z,98439.78
2023-05-19T14:59:25.190Z,98443.17
2023-05-19T15:02:29.689Z,98438.89
2023-05-19T15:05:32.877Z,98433.88
2023-05-19T15:08:37.868Z,98437.92
2023-05-19T15:11:40.981Z,98442.71
2023-05-19T15:14:43.854Z,98442.45
2023-05-19T15:17:48.031Z,98446.40
2023-05-19T15:20:50.938Z,98444.27
2023-05-19T15:23:53.945Z,98440.69
2023-05-19T15:26:56.838Z,98441.90
2023-05-19T15:29:59.744Z,98441.70
2023-05-19T15:33:02.678Z,98440.04
2023-05-19T15:36:06.007Z,98437.77
2023-05-19T15:39:09.884Z,98442.38
2023-05-19T15:42:12.808Z,98445.59
2023-05-19T15:45:15.739Z,98443.45
2023-05-19T15:48:18.664Z,98430.07
2023-05-19T15:51:21.930Z,98429.58
2023-05-19T15:54:25.650Z,98438.59
2023-05-19T15:57:28.958Z,98436.90
2023-05-19T16:00:32.043Z,98437.73
2023-05-19T16:03:35.229Z,98435.80
2023-05-19T16:06:38.295Z,98437.55
2023-05-19T16:09:41.134Z,98436.60
2023-05-19T16:12:44.072Z,98441.23
2023-05-19T16:15:47.273Z,98444.53
2023-05-19T16:18:50.646Z,98447.69
2023-05-19T16:21:53.668Z,98443.48
2023-05-19T16:24:56.556Z,98442.77
2023-05-19T16:27:59.576Z,98440.09
2023-05-19T16:31:02.887Z,98443.80
2023-05-19T16:34:05.757Z,98446.41
2023-05-19T16:37:08.767Z,98451.09
2023-05-19T16:40:12.102Z,98451.52
2023-05-19T16:43:14.983Z,98453.24
2023-05-19T16:46:17.879Z,98454.48
2023-05-19T16:49:20.964Z,98453.77
2023-05-19T16:52:24.034Z,98455.37
2023-05-19T16:55:27.123Z,98452.69
2023-05-19T16:58:31.021Z,98450.96
2023-05-19T17:01:34.158Z,98449.36
2023-05-19T17:04:37.046Z,98451.72
2023-05-19T17:07:39.908Z,98457.50
2023-05-19T17:10:42.762Z,98458.48
2023-05-19T17:13:46.457Z,98462.73
2023-05-19T17:16:49.575Z,98463.52
2023-05-19T17:19:52.602Z,98468.29
2023-05-19T17:22:55.483Z,98469.60
2023-05-19T17:26:02.083Z,98472.17
2023-05-19T17:29:06.032Z,98468.21
2023-05-19T17:32:09.084Z,98459.29
2023-05-19T17:35:12.088Z,98459.13
2023-05-19T17:38:15.129Z,98463.91
2023-05-19T17:41:18.048Z,98461.96
2023-05-19T17:44:23.202Z,98468.61
2023-05-19T17:47:26.362Z,98465.06
2023-05-19T17:50:29.241Z,98466.04
2023-05-19T17:53:32.385Z,98472.30
2023-05-19T17:56:41.593Z,98470.06
2023-05-19T17:59:45.080Z,98473.48
2023-05-19T18:02:48.441Z,98475.93
2023-05-19T18:05:51.903Z,98477.14
2023-05-19T18:08:58.146Z,98477.59
2023-05-19T18:12:02.473Z,98475.20
2023-05-19T18:15:06.130Z,98468.32
2023-05-19T18:18:10.723Z,98471.73
2023-05-19T18:21:17.855Z,98474.36
2023-05-19T18:24:29.076Z,98475.10
2023-05-19T18:27:33.568Z,98473.28
2023-05-19T18:30:36.729Z,98467.64
2023-05-19T18:33:39.796Z,98469.66
2023-05-19T18:36:42.746Z,98473.96
2023-05-19T18:39:45.751Z,98474.33
2023-05-19T18:42:48.625Z,98476.13
2023-05-19T18:45:51.595Z,98473.55
2023-05-19T18:48:54.789Z,98475.29
2023-05-19T18:51:57.786Z,98478.45
2023-05-19T18:55:01.304Z,98476.05
2023-05-19T18:58:04.798Z,98474.89
2023-05-19T19:01:07.730Z,98476.39
2023-05-19T19:04:10.685Z,98479.26
2023-05-19T19:07:13.633Z,98482.69
2023-05-19T19:10:16.693Z,98483.02
2023-05-19T19:13:19.740Z,98487.65
2023-05-19T19:16:22.829Z,98490.68
2023-05-19T19:19:30.034Z,98490.67
2023-05-19T19:22:33.264Z,98482.64
2023-05-19T19:25:36.174Z,98478.16
2023-05-19T19:28:39.194Z,98484.79
2023-05-19T19:31:42.439Z,98488.77
2023-05-19T19:34:45.544Z,98492.33
2023-05-19T19:37:48.737Z,98489.04
2023-05-19T19:40:52.766Z,98488.94
2023-05-19T19:43:56.154Z,98484.85
2023-05-19T19:46:59.693Z,98485.92
2023-05-19T19:50:05.750Z,98486.66
2023-05-19T19:53:09.056Z,98487.39
2023-05-19T19:56:11.995Z,98492.63
2023-05-19T19:59:16.041Z,98495.80
2023-05-19T20:02:19.083Z,98492.02
2023-05-19T20:05:22.331Z,98493.40
2023-05-19T20:08:26.018Z,98487.41
2023-05-19T20:11:29.130Z,98486.05
2023-05-19T20:14:32.286Z,98485.54
2023-05-19T20:17:37.231Z,98483.27
2023-05-19T20:20:41.269Z,98478.09
2023-05-19T20:23:44.384Z,98481.95
2023-05-19T20:26:47.569Z,98483.89
2023-05-19T20:29:50.641Z,98486.80
2023-05-19T20:32:53.618Z,98495.98
2023-05-19T20:35:56.560Z,98500.00
2023-05-19T20:38:59.860Z,98500.87
2023-05-19T20:42:02.754Z,98499.82
2023-05-19T20:45:06.434Z,98496.30
2023-05-19T20:48:11.247Z,98492.38
2023-05-19T20:51:14.422Z,98486.98
2023-05-19T20:54:19.863Z,98485.14
2023-05-19T20:57:22.827Z,98480.92
2023-05-19T21:00:25.859Z,98479.30
2023-05-19T21:03:30.611Z,98470.09
2023-05-19T21:06:33.970Z,98471.21
2023-05-19T21:09:36.911Z,98475.33
2023-05-19T21:12:39.879Z,98477.05
2023-05-19T21:15:42.768Z,98483.34
2023-05-19T21:18:45.706Z,98483.87
2023-05-19T21:21:49.596Z,98494.17
2023-05-19T21:24:53.202Z,98491.48
2023-05-19T21:27:56.207Z,98485.44
2023-05-19T21:30:59.253Z,98488.39
2023-05-19T21:34:02.962Z,98495.73
2023-05-19T21:37:05.861Z,98499.56
2023-05-19T21:40:09.845Z,98497.45
2023-05-19T21:43:13.000Z,98499.11
2023-05-19T21:46:15.876Z,98502.59
2023-05-19T21:49:18.854Z,98501.84
2023-05-19T21:52:22.059Z,98499.16
2023-05-19T21:55:24.961Z,98509.84
2023-05-19T21:58:27.859Z,98512.77
2023-05-19T22:01:30.869Z,98505.52
2023-05-19T22:04:33.794Z,98505.45
2023-05-19T22:07:36.797Z,98508.05
2023-05-19T22:10:39.668Z,98503.33
2023-05-19T22:13:42.628Z,98492.98
2023-05-19T22:16:47.598Z,98490.17
2023-05-19T22:19:50.690Z,98488.68
2023-05-19T22:22:53.656Z,98494.19
2023-05-19T22:25:56.504Z,98494.42
2023-05-19T22:28:59.372Z,98491.42
2023-05-19T22:32:02.363Z,98488.88
2023-05-19T22:35:06.688Z,98493.23
2023-05-19T22:38:10.671Z,98488.58
2023-05-19T22:41:13.807Z,98481.28
2023-05-19T22:44:18.202Z,98486.94
2023-05-19T22:47:21.795Z,98484.41
2023-05-19T22:50:24.854Z,98484.11
2023-05-19T22:53:27.702Z,98481.50
2023-05-19T22:56:30.550Z,98482.50
2023-05-19T22:59:33.766Z,98484.28
2023-05-19T23:02:36.816Z,98480.80
2023-05-19T23:05:40.228Z,98479.20
2023-05-19T23:08:46.736Z,98473.24
2023-05-19T23:11:50.236Z,98465.88
2023-05-19T23:14:53.133Z,98464.21
2023-05-19T23:17:56.076Z,98463.50
2023-05-19T23:20:59.041Z,98461.24
2023-05-19T23:24:02.097Z,98462.75
2023-05-19T23:27:05.712Z,98467.65
2023-05-19T23:30:09.123Z,98471.77
2023-05-19T23:33:12.060Z,98466.34
2023-05-19T23:36:16.706Z,98461.41
2023-05-19T23:39:19.711Z,98458.02
2023-05-19T23:42:22.613Z,98458.41
2023-05-19T23:45:25.611Z,98458.80
2023-05-19T23:48:29.489Z,98455.91
2023-05-19T23:51:32.349Z,98450.71
2023-05-19T23:54:35.411Z,98450.95
2023-05-19T23:57:38.375Z,98445.34
